sensor_id;sensor_type;location;lat;lon;timestamp;P1;durP1;ratioP1;P2;durP2;ratioP2
37483;SDS011;23337;52.212;9.926;2022-12-18T00:02:11;15.07;;;10.33;;
37483;SDS011;23337;52.212;9.926;2022-12-18T00:04:37;15.07;;;10.63;;
37483;SDS011;23337;52.212;9.926;2022-12-18T00:07:03;14.10;;;9.10;;
37483;SDS011;23337;52.212;9.926;2022-12-18T00:09:29;13.97;;;9.27;;
37483;SDS011;23337;52.212;9.926;2022-12-18T00:11:55;14.93;;;9.53;;
37483;SDS011;23337;52.212;9.926;2022-12-18T00:14:21;17.20;;;9.47;;
37483;SDS011;23337;52.212;9.926;2022-12-18T00:16:47;14.13;;;9.17;;
37483;SDS011;23337;52.212;9.926;2022-12-18T00:19:13;14.07;;;9.27;;
37483;SDS011;23337;52.212;9.926;2022-12-18T00:21:39;16.73;;;10.37;;
37483;SDS011;23337;52.212;9.926;2022-12-18T00:24:06;14.70;;;9.03;;
37483;SDS011;23337;52.212;9.926;2022-12-18T00:26:33;12.87;;;9.27;;
37483;SDS011;23337;52.212;9.926;2022-12-18T00:28:59;12.97;;;8.77;;
37483;SDS011;23337;52.212;9.926;2022-12-18T00:31:25;12.50;;;9.17;;
37483;SDS011;23337;52.212;9.926;2022-12-18T00:33:53;14.73;;;9.10;;
37483;SDS011;23337;52.212;9.926;2022-12-18T00:36:20;18.93;;;8.50;;
37483;SDS011;23337;52.212;9.926;2022-12-18T00:38:47;10.77;;;8.70;;
37483;SDS011;23337;52.212;9.926;2022-12-18T00:41:14;15.83;;;9.70;;
37483;SDS011;23337;52.212;9.926;2022-12-18T00:44:00;11.73;;;7.93;;
37483;SDS011;23337;52.212;9.926;2022-12-18T00:46:26;13.53;;;8.80;;
37483;SDS011;23337;52.212;9.926;2022-12-18T00:48:52;11.87;;;8.17;;
37483;SDS011;23337;52.212;9.926;2022-12-18T00:51:18;13.17;;;7.93;;
37483;SDS011;23337;52.212;9.926;2022-12-18T00:53:44;13.07;;;8.63;;
37483;SDS011;23337;52.212;9.926;2022-12-18T00:56:10;14.60;;;8.73;;
37483;SDS011;23337;52.212;9.926;2022-12-18T00:58:36;13.23;;;8.70;;
37483;SDS011;23337;52.212;9.926;2022-12-18T01:01:03;12.20;;;8.83;;
37483;SDS011;23337;52.212;9.926;2022-12-18T01:03:29;10.40;;;8.33;;
37483;SDS011;23337;52.212;9.926;2022-12-18T01:05:55;13.30;;;8.03;;
37483;SDS011;23337;52.212;9.926;2022-12-18T01:08:21;11.60;;;9.43;;
37483;SDS011;23337;52.212;9.926;2022-12-18T01:10:47;12.47;;;8.73;;
37483;SDS011;23337;52.212;9.926;2022-12-18T01:13:13;12.60;;;8.70;;
37483;SDS011;23337;52.212;9.926;2022-12-18T01:15:39;14.70;;;8.73;;
37483;SDS011;23337;52.212;9.926;2022-12-18T01:18:06;10.83;;;8.63;;
37483;SDS011;23337;52.212;9.926;2022-12-18T01:20:32;14.63;;;8.73;;
37483;SDS011;23337;52.212;9.926;2022-12-18T01:22:58;13.87;;;7.37;;
37483;SDS011;23337;52.212;9.926;2022-12-18T01:25:24;12.93;;;8.13;;
37483;SDS011;23337;52.212;9.926;2022-12-18T01:27:50;13.03;;;8.37;;
37483;SDS011;23337;52.212;9.926;2022-12-18T01:30:16;10.57;;;8.40;;
37483;SDS011;23337;52.212;9.926;2022-12-18T01:32:42;10.67;;;7.73;;
37483;SDS011;23337;52.212;9.926;2022-12-18T01:35:08;14.77;;;8.43;;
37483;SDS011;23337;52.212;9.926;2022-12-18T01:37:34;11.60;;;7.60;;
37483;SDS011;23337;52.212;9.926;2022-12-18T01:40:00;12.90;;;8.43;;
37483;SDS011;23337;52.212;9.926;2022-12-18T01:42:26;13.97;;;8.27;;
37483;SDS011;23337;52.212;9.926;2022-12-18T01:44:56;13.10;;;8.57;;
37483;SDS011;23337;52.212;9.926;2022-12-18T01:47:27;9.73;;;7.77;;
37483;SDS011;23337;52.212;9.926;2022-12-18T01:49:54;10.63;;;8.10;;
37483;SDS011;23337;52.212;9.926;2022-12-18T01:52:21;16.13;;;9.10;;
37483;SDS011;23337;52.212;9.926;2022-12-18T01:54:48;11.33;;;8.63;;
37483;SDS011;23337;52.212;9.926;2022-12-18T01:57:14;12.33;;;8.47;;
37483;SDS011;23337;52.212;9.926;2022-12-18T01:59:40;13.03;;;8.37;;
37483;SDS011;23337;52.212;9.926;2022-12-18T02:02:07;12.80;;;8.00;;
37483;SDS011;23337;52.212;9.926;2022-12-18T02:04:34;12.77;;;7.70;;
37483;SDS011;23337;52.212;9.926;2022-12-18T02:07:03;12.87;;;8.00;;
37483;SDS011;23337;52.212;9.926;2022-12-18T02:09:34;12.00;;;8.40;;
37483;SDS011;23337;52.212;9.926;2022-12-18T02:14:44;12.13;;;7.93;;
37483;SDS011;23337;52.212;9.926;2022-12-18T02:17:11;11.97;;;8.37;;
37483;SDS011;23337;52.212;9.926;2022-12-18T02:22:27;11.43;;;8.73;;
37483;SDS011;23337;52.212;9.926;2022-12-18T02:24:58;12.43;;;7.97;;
37483;SDS011;23337;52.212;9.926;2022-12-18T02:27:25;10.23;;;8.00;;
37483;SDS011;23337;52.212;9.926;2022-12-18T02:29:52;11.73;;;7.87;;
37483;SDS011;23337;52.212;9.926;2022-12-18T02:32:27;12.20;;;7.63;;
37483;SDS011;23337;52.212;9.926;2022-12-18T02:34:53;10.77;;;8.13;;
37483;SDS011;23337;52.212;9.926;2022-12-18T02:37:21;13.37;;;8.07;;
37483;SDS011;23337;52.212;9.926;2022-12-18T02:39:48;11.70;;;7.70;;
37483;SDS011;23337;52.212;9.926;2022-12-18T02:42:14;13.27;;;8.07;;
37483;SDS011;23337;52.212;9.926;2022-12-18T02:44:42;11.30;;;7.27;;
37483;SDS011;23337;52.212;9.926;2022-12-18T02:47:10;11.00;;;7.73;;
37483;SDS011;23337;52.212;9.926;2022-12-18T02:55:00;11.60;;;7.57;;
37483;SDS011;23337;52.212;9.926;2022-12-18T02:59:56;13.03;;;7.50;;
37483;SDS011;23337;52.212;9.926;2022-12-18T03:02:29;11.90;;;7.50;;
37483;SDS011;23337;52.212;9.926;2022-12-18T03:05:01;12.47;;;8.00;;
37483;SDS011;23337;52.212;9.926;2022-12-18T03:07:36;9.97;;;7.43;;
37483;SDS011;23337;52.212;9.926;2022-12-18T03:10:03;11.77;;;7.87;;
37483;SDS011;23337;52.212;9.926;2022-12-18T03:12:32;9.60;;;7.00;;
37483;SDS011;23337;52.212;9.926;2022-12-18T03:17:55;12.13;;;7.27;;
37483;SDS011;23337;52.212;9.926;2022-12-18T03:20:22;10.80;;;7.93;;
37483;SDS011;23337;52.212;9.926;2022-12-18T03:22:50;10.40;;;6.97;;
37483;SDS011;23337;52.212;9.926;2022-12-18T03:25:16;12.17;;;7.30;;
37483;SDS011;23337;52.212;9.926;2022-12-18T03:27:45;11.77;;;7.00;;
37483;SDS011;23337;52.212;9.926;2022-12-18T03:30:13;10.20;;;7.00;;
37483;SDS011;23337;52.212;9.926;2022-12-18T03:32:41;11.10;;;7.73;;
37483;SDS011;23337;52.212;9.926;2022-12-18T03:35:09;8.53;;;6.97;;
37483;SDS011;23337;52.212;9.926;2022-12-18T03:37:37;13.47;;;7.80;;
37483;SDS011;23337;52.212;9.926;2022-12-18T03:40:03;11.60;;;7.73;;
37483;SDS011;23337;52.212;9.926;2022-12-18T03:45:09;11.13;;;7.50;;
37483;SDS011;23337;52.212;9.926;2022-12-18T03:47:42;9.67;;;7.50;;
37483;SDS011;23337;52.212;9.926;2022-12-18T03:50:14;11.10;;;7.43;;
37483;SDS011;23337;52.212;9.926;2022-12-18T03:52:49;12.03;;;7.90;;
37483;SDS011;23337;52.212;9.926;2022-12-18T03:55:18;8.73;;;7.30;;
37483;SDS011;23337;52.212;9.926;2022-12-18T03:57:45;9.03;;;7.17;;
37483;SDS011;23337;52.212;9.926;2022-12-18T04:00:13;12.83;;;7.77;;
37483;SDS011;23337;52.212;9.926;2022-12-18T04:02:40;9.47;;;7.23;;
37483;SDS011;23337;52.212;9.926;2022-12-18T04:05:08;12.47;;;7.60;;
37483;SDS011;23337;52.212;9.926;2022-12-18T04:07:35;10.87;;;7.00;;
37483;SDS011;23337;52.212;9.926;2022-12-18T04:10:02;10.50;;;7.07;;
37483;SDS011;23337;52.212;9.926;2022-12-18T04:12:29;10.03;;;7.40;;
37483;SDS011;23337;52.212;9.926;2022-12-18T04:14:55;12.13;;;10.47;;
37483;SDS011;23337;52.212;9.926;2022-12-18T04:17:21;9.43;;;6.90;;
37483;SDS011;23337;52.212;9.926;2022-12-18T04:19:48;10.97;;;7.23;;
37483;SDS011;23337;52.212;9.926;2022-12-18T04:22:14;9.60;;;6.33;;
37483;SDS011;23337;52.212;9.926;2022-12-18T04:24:40;10.97;;;7.33;;
37483;SDS011;23337;52.212;9.926;2022-12-18T04:27:06;11.07;;;6.80;;
37483;SDS011;23337;52.212;9.926;2022-12-18T04:29:33;9.97;;;6.50;;
37483;SDS011;23337;52.212;9.926;2022-12-18T04:31:59;10.73;;;7.13;;
37483;SDS011;23337;52.212;9.926;2022-12-18T04:34:25;9.10;;;6.53;;
37483;SDS011;23337;52.212;9.926;2022-12-18T04:36:51;9.77;;;7.13;;
37483;SDS011;23337;52.212;9.926;2022-12-18T04:39:17;13.33;;;8.53;;
37483;SDS011;23337;52.212;9.926;2022-12-18T04:41:42;10.17;;;7.20;;
37483;SDS011;23337;52.212;9.926;2022-12-18T04:44:08;12.87;;;6.37;;
37483;SDS011;23337;52.212;9.926;2022-12-18T04:46:34;11.70;;;6.57;;
37483;SDS011;23337;52.212;9.926;2022-12-18T04:49:00;8.83;;;6.27;;
37483;SDS011;23337;52.212;9.926;2022-12-18T04:51:26;9.00;;;6.53;;
37483;SDS011;23337;52.212;9.926;2022-12-18T04:53:53;9.03;;;6.10;;
37483;SDS011;23337;52.212;9.926;2022-12-18T04:56:19;13.17;;;7.43;;
37483;SDS011;23337;52.212;9.926;2022-12-18T04:58:45;11.33;;;7.37;;
37483;SDS011;23337;52.212;9.926;2022-12-18T05:01:12;9.37;;;7.17;;
37483;SDS011;23337;52.212;9.926;2022-12-18T05:03:38;7.47;;;6.63;;
37483;SDS011;23337;52.212;9.926;2022-12-18T05:06:05;11.27;;;7.00;;
37483;SDS011;23337;52.212;9.926;2022-12-18T05:08:31;10.80;;;6.30;;
37483;SDS011;23337;52.212;9.926;2022-12-18T05:10:58;9.33;;;6.43;;
37483;SDS011;23337;52.212;9.926;2022-12-18T05:13:25;7.90;;;6.13;;
37483;SDS011;23337;52.212;9.926;2022-12-18T05:15:51;8.47;;;6.33;;
37483;SDS011;23337;52.212;9.926;2022-12-18T05:18:17;9.73;;;6.37;;
37483;SDS011;23337;52.212;9.926;2022-12-18T05:20:43;10.13;;;6.33;;
37483;SDS011;23337;52.212;9.926;2022-12-18T05:23:09;9.30;;;6.23;;
37483;SDS011;23337;52.212;9.926;2022-12-18T05:25:35;10.00;;;6.43;;
37483;SDS011;23337;52.212;9.926;2022-12-18T05:28:01;9.93;;;5.93;;
37483;SDS011;23337;52.212;9.926;2022-12-18T05:30:27;10.30;;;7.33;;
37483;SDS011;23337;52.212;9.926;2022-12-18T05:32:53;10.93;;;6.60;;
37483;SDS011;23337;52.212;9.926;2022-12-18T05:35:19;10.23;;;5.93;;
37483;SDS011;23337;52.212;9.926;2022-12-18T05:37:45;10.10;;;7.27;;
37483;SDS011;23337;52.212;9.926;2022-12-18T05:40:11;8.63;;;7.10;;
37483;SDS011;23337;52.212;9.926;2022-12-18T05:42:37;9.30;;;6.13;;
37483;SDS011;23337;52.212;9.926;2022-12-18T05:45:03;11.57;;;6.77;;
37483;SDS011;23337;52.212;9.926;2022-12-18T05:47:29;10.20;;;6.63;;
37483;SDS011;23337;52.212;9.926;2022-12-18T05:49:55;9.10;;;6.00;;
37483;SDS011;23337;52.212;9.926;2022-12-18T05:52:21;10.30;;;5.77;;
37483;SDS011;23337;52.212;9.926;2022-12-18T05:54:47;7.27;;;5.20;;
37483;SDS011;23337;52.212;9.926;2022-12-18T05:57:13;10.13;;;6.83;;
37483;SDS011;23337;52.212;9.926;2022-12-18T05:59:39;13.27;;;5.73;;
37483;SDS011;23337;52.212;9.926;2022-12-18T06:02:05;10.20;;;6.10;;
37483;SDS011;23337;52.212;9.926;2022-12-18T06:04:31;9.13;;;5.80;;
37483;SDS011;23337;52.212;9.926;2022-12-18T06:06:57;8.97;;;4.80;;
37483;SDS011;23337;52.212;9.926;2022-12-18T06:09:23;7.53;;;4.87;;
37483;SDS011;23337;52.212;9.926;2022-12-18T06:11:51;7.60;;;5.37;;
37483;SDS011;23337;52.212;9.926;2022-12-18T06:14:17;9.13;;;5.30;;
37483;SDS011;23337;52.212;9.926;2022-12-18T06:16:43;9.97;;;6.50;;
37483;SDS011;23337;52.212;9.926;2022-12-18T06:19:12;9.10;;;5.93;;
37483;SDS011;23337;52.212;9.926;2022-12-18T06:21:39;8.40;;;5.60;;
37483;SDS011;23337;52.212;9.926;2022-12-18T06:24:05;8.93;;;5.30;;
37483;SDS011;23337;52.212;9.926;2022-12-18T06:26:31;6.87;;;5.27;;
37483;SDS011;23337;52.212;9.926;2022-12-18T06:28:57;6.07;;;4.70;;
37483;SDS011;23337;52.212;9.926;2022-12-18T06:31:23;8.40;;;6.17;;
37483;SDS011;23337;52.212;9.926;2022-12-18T06:33:49;10.27;;;6.17;;
37483;SDS011;23337;52.212;9.926;2022-12-18T06:36:15;7.43;;;4.87;;
37483;SDS011;23337;52.212;9.926;2022-12-18T06:38:42;7.77;;;5.53;;
37483;SDS011;23337;52.212;9.926;2022-12-18T06:41:12;6.93;;;5.37;;
37483;SDS011;23337;52.212;9.926;2022-12-18T06:43:38;10.33;;;6.50;;
37483;SDS011;23337;52.212;9.926;2022-12-18T06:46:05;9.00;;;5.47;;
37483;SDS011;23337;52.212;9.926;2022-12-18T06:48:31;6.77;;;4.97;;
37483;SDS011;23337;52.212;9.926;2022-12-18T06:50:57;8.50;;;5.50;;
37483;SDS011;23337;52.212;9.926;2022-12-18T06:53:23;8.13;;;5.10;;
37483;SDS011;23337;52.212;9.926;2022-12-18T06:55:50;7.90;;;5.03;;
37483;SDS011;23337;52.212;9.926;2022-12-18T06:58:16;7.67;;;4.77;;
37483;SDS011;23337;52.212;9.926;2022-12-18T07:00:42;6.40;;;4.90;;
37483;SDS011;23337;52.212;9.926;2022-12-18T07:03:08;7.40;;;4.60;;
37483;SDS011;23337;52.212;9.926;2022-12-18T07:05:34;8.30;;;5.17;;
37483;SDS011;23337;52.212;9.926;2022-12-18T07:08:00;7.67;;;5.17;;
37483;SDS011;23337;52.212;9.926;2022-12-18T07:10:26;8.20;;;4.40;;
37483;SDS011;23337;52.212;9.926;2022-12-18T07:12:52;8.53;;;5.17;;
37483;SDS011;23337;52.212;9.926;2022-12-18T07:15:17;7.23;;;4.70;;
37483;SDS011;23337;52.212;9.926;2022-12-18T07:17:43;7.00;;;5.30;;
37483;SDS011;23337;52.212;9.926;2022-12-18T07:20:09;7.33;;;5.37;;
37483;SDS011;23337;52.212;9.926;2022-12-18T07:22:35;8.95;;;5.63;;
37483;SDS011;23337;52.212;9.926;2022-12-18T07:25:01;6.80;;;4.63;;
37483;SDS011;23337;52.212;9.926;2022-12-18T07:27:27;6.97;;;4.77;;
37483;SDS011;23337;52.212;9.926;2022-12-18T07:29:54;9.73;;;5.63;;
37483;SDS011;23337;52.212;9.926;2022-12-18T07:32:20;8.17;;;4.90;;
37483;SDS011;23337;52.212;9.926;2022-12-18T07:34:46;8.70;;;4.70;;
37483;SDS011;23337;52.212;9.926;2022-12-18T07:37:11;8.37;;;4.67;;
37483;SDS011;23337;52.212;9.926;2022-12-18T07:39:37;6.97;;;4.47;;
37483;SDS011;23337;52.212;9.926;2022-12-18T07:42:03;8.90;;;4.90;;
37483;SDS011;23337;52.212;9.926;2022-12-18T07:44:53;8.40;;;5.23;;
37483;SDS011;23337;52.212;9.926;2022-12-18T07:47:18;7.23;;;4.20;;
37483;SDS011;23337;52.212;9.926;2022-12-18T07:49:44;8.50;;;4.43;;
37483;SDS011;23337;52.212;9.926;2022-12-18T07:52:10;11.33;;;5.77;;
37483;SDS011;23337;52.212;9.926;2022-12-18T07:54:37;5.13;;;4.00;;
37483;SDS011;23337;52.212;9.926;2022-12-18T07:57:03;6.80;;;4.53;;
37483;SDS011;23337;52.212;9.926;2022-12-18T07:59:29;6.73;;;4.10;;
37483;SDS011;23337;52.212;9.926;2022-12-18T08:01:55;5.50;;;4.10;;
37483;SDS011;23337;52.212;9.926;2022-12-18T08:04:21;7.07;;;4.67;;
37483;SDS011;23337;52.212;9.926;2022-12-18T08:06:47;7.00;;;4.60;;
37483;SDS011;23337;52.212;9.926;2022-12-18T08:09:13;6.57;;;3.80;;
37483;SDS011;23337;52.212;9.926;2022-12-18T08:11:39;7.50;;;4.63;;
37483;SDS011;23337;52.212;9.926;2022-12-18T08:14:05;5.33;;;4.07;;
37483;SDS011;23337;52.212;9.926;2022-12-18T08:16:31;5.43;;;4.50;;
37483;SDS011;23337;52.212;9.926;2022-12-18T08:18:57;10.37;;;4.87;;
37483;SDS011;23337;52.212;9.926;2022-12-18T08:21:24;6.50;;;3.57;;
37483;SDS011;23337;52.212;9.926;2022-12-18T08:23:51;8.97;;;4.83;;
37483;SDS011;23337;52.212;9.926;2022-12-18T08:26:18;8.30;;;4.20;;
37483;SDS011;23337;52.212;9.926;2022-12-18T08:28:44;8.07;;;4.57;;
37483;SDS011;23337;52.212;9.926;2022-12-18T08:31:10;5.87;;;4.57;;
37483;SDS011;23337;52.212;9.926;2022-12-18T08:33:36;5.20;;;4.00;;
37483;SDS011;23337;52.212;9.926;2022-12-18T08:36:03;6.27;;;3.87;;
37483;SDS011;23337;52.212;9.926;2022-12-18T08:38:29;5.97;;;3.90;;
37483;SDS011;23337;52.212;9.926;2022-12-18T08:41:02;6.33;;;3.60;;
37483;SDS011;23337;52.212;9.926;2022-12-18T08:43:28;6.27;;;4.23;;
37483;SDS011;23337;52.212;9.926;2022-12-18T08:46:13;6.13;;;3.97;;
37483;SDS011;23337;52.212;9.926;2022-12-18T08:48:39;6.90;;;3.70;;
37483;SDS011;23337;52.212;9.926;2022-12-18T08:51:05;7.37;;;3.83;;
37483;SDS011;23337;52.212;9.926;2022-12-18T08:53:31;7.03;;;4.00;;
37483;SDS011;23337;52.212;9.926;2022-12-18T08:55:57;7.13;;;4.07;;
37483;SDS011;23337;52.212;9.926;2022-12-18T08:58:23;5.10;;;3.00;;
37483;SDS011;23337;52.212;9.926;2022-12-18T09:00:49;4.23;;;2.83;;
37483;SDS011;23337;52.212;9.926;2022-12-18T09:03:16;4.87;;;3.67;;
37483;SDS011;23337;52.212;9.926;2022-12-18T09:05:42;5.43;;;2.80;;
37483;SDS011;23337;52.212;9.926;2022-12-18T09:08:08;6.00;;;3.90;;
37483;SDS011;23337;52.212;9.926;2022-12-18T09:10:40;5.37;;;3.57;;
37483;SDS011;23337;52.212;9.926;2022-12-18T09:13:06;5.57;;;3.20;;
37483;SDS011;23337;52.212;9.926;2022-12-18T09:15:32;3.90;;;3.23;;
37483;SDS011;23337;52.212;9.926;2022-12-18T09:17:58;4.47;;;3.03;;
37483;SDS011;23337;52.212;9.926;2022-12-18T09:20:24;6.07;;;3.83;;
37483;SDS011;23337;52.212;9.926;2022-12-18T09:22:53;5.40;;;3.60;;
37483;SDS011;23337;52.212;9.926;2022-12-18T09:25:19;6.73;;;3.70;;
37483;SDS011;23337;52.212;9.926;2022-12-18T09:27:47;6.93;;;3.63;;
37483;SDS011;23337;52.212;9.926;2022-12-18T09:30:13;4.50;;;3.00;;
37483;SDS011;23337;52.212;9.926;2022-12-18T09:32:39;5.47;;;2.70;;
37483;SDS011;23337;52.212;9.926;2022-12-18T09:35:05;4.40;;;2.83;;
37483;SDS011;23337;52.212;9.926;2022-12-18T09:37:31;5.63;;;2.77;;
37483;SDS011;23337;52.212;9.926;2022-12-18T09:39:57;3.63;;;2.47;;
37483;SDS011;23337;52.212;9.926;2022-12-18T09:42:23;3.43;;;2.33;;
37483;SDS011;23337;52.212;9.926;2022-12-18T09:44:50;4.60;;;2.30;;
37483;SDS011;23337;52.212;9.926;2022-12-18T09:49:43;4.53;;;2.43;;
37483;SDS011;23337;52.212;9.926;2022-12-18T09:52:17;5.20;;;2.33;;
37483;SDS011;23337;52.212;9.926;2022-12-18T09:55:08;3.47;;;2.30;;
37483;SDS011;23337;52.212;9.926;2022-12-18T09:57:33;3.77;;;2.03;;
37483;SDS011;23337;52.212;9.926;2022-12-18T10:00:15;2.70;;;2.10;;
37483;SDS011;23337;52.212;9.926;2022-12-18T10:02:41;4.60;;;2.30;;
37483;SDS011;23337;52.212;9.926;2022-12-18T10:05:10;3.50;;;2.10;;
37483;SDS011;23337;52.212;9.926;2022-12-18T10:10:33;5.00;;;2.77;;
37483;SDS011;23337;52.212;9.926;2022-12-18T10:13:07;6.47;;;2.63;;
37483;SDS011;23337;52.212;9.926;2022-12-18T10:15:38;3.30;;;2.53;;
37483;SDS011;23337;52.212;9.926;2022-12-18T10:18:10;3.93;;;2.37;;
37483;SDS011;23337;52.212;9.926;2022-12-18T10:20:42;3.27;;;2.33;;
37483;SDS011;23337;52.212;9.926;2022-12-18T10:23:12;8.93;;;3.93;;
37483;SDS011;23337;52.212;9.926;2022-12-18T10:28:26;4.87;;;2.10;;
37483;SDS011;23337;52.212;9.926;2022-12-18T10:30:52;4.43;;;2.30;;
37483;SDS011;23337;52.212;9.926;2022-12-18T10:33:19;4.47;;;2.33;;
37483;SDS011;23337;52.212;9.926;2022-12-18T10:35:46;3.97;;;2.00;;
37483;SDS011;23337;52.212;9.926;2022-12-18T10:43:19;3.00;;;2.00;;
37483;SDS011;23337;52.212;9.926;2022-12-18T10:45:57;3.67;;;2.00;;
37483;SDS011;23337;52.212;9.926;2022-12-18T10:48:24;3.17;;;1.60;;
37483;SDS011;23337;52.212;9.926;2022-12-18T10:50:50;5.43;;;1.70;;
37483;SDS011;23337;52.212;9.926;2022-12-18T10:53:21;1.87;;;1.50;;
37483;SDS011;23337;52.212;9.926;2022-12-18T10:55:48;3.30;;;1.80;;
37483;SDS011;23337;52.212;9.926;2022-12-18T10:58:30;5.17;;;1.67;;
37483;SDS011;23337;52.212;9.926;2022-12-18T11:01:17;3.23;;;1.63;;
37483;SDS011;23337;52.212;9.926;2022-12-18T11:03:58;3.60;;;2.23;;
37483;SDS011;23337;52.212;9.926;2022-12-18T11:06:25;3.07;;;1.60;;
37483;SDS011;23337;52.212;9.926;2022-12-18T11:09:01;3.90;;;1.80;;
37483;SDS011;23337;52.212;9.926;2022-12-18T11:11:27;3.73;;;1.57;;
37483;SDS011;23337;52.212;9.926;2022-12-18T11:14:06;4.13;;;1.70;;
37483;SDS011;23337;52.212;9.926;2022-12-18T11:16:45;3.30;;;1.60;;
37483;SDS011;23337;52.212;9.926;2022-12-18T11:21:40;4.93;;;2.17;;
37483;SDS011;23337;52.212;9.926;2022-12-18T11:24:07;2.93;;;1.97;;
37483;SDS011;23337;52.212;9.926;2022-12-18T11:26:41;2.60;;;1.47;;
37483;SDS011;23337;52.212;9.926;2022-12-18T11:29:09;5.40;;;1.90;;
37483;SDS011;23337;52.212;9.926;2022-12-18T11:31:36;3.03;;;1.47;;
37483;SDS011;23337;52.212;9.926;2022-12-18T11:34:09;4.23;;;2.23;;
37483;SDS011;23337;52.212;9.926;2022-12-18T11:36:43;9.17;;;2.53;;
37483;SDS011;23337;52.212;9.926;2022-12-18T11:39:24;4.53;;;2.27;;
37483;SDS011;23337;52.212;9.926;2022-12-18T11:41:56;4.40;;;1.93;;
37483;SDS011;23337;52.212;9.926;2022-12-18T11:47:47;4.20;;;2.60;;
37483;SDS011;23337;52.212;9.926;2022-12-18T11:50:16;4.93;;;2.33;;
37483;SDS011;23337;52.212;9.926;2022-12-18T11:52:43;5.60;;;3.07;;
37483;SDS011;23337;52.212;9.926;2022-12-18T11:55:10;4.90;;;2.67;;
37483;SDS011;23337;52.212;9.926;2022-12-18T12:00:16;5.27;;;2.90;;
37483;SDS011;23337;52.212;9.926;2022-12-18T12:02:53;5.30;;;1.77;;
37483;SDS011;23337;52.212;9.926;2022-12-18T12:15:30;8.27;;;5.53;;
37483;SDS011;23337;52.212;9.926;2022-12-18T12:18:07;10.17;;;7.33;;
37483;SDS011;23337;52.212;9.926;2022-12-18T12:20:46;10.07;;;6.20;;
37483;SDS011;23337;52.212;9.926;2022-12-18T12:25:44;8.20;;;5.90;;
37483;SDS011;23337;52.212;9.926;2022-12-18T12:28:15;8.77;;;6.17;;
37483;SDS011;23337;52.212;9.926;2022-12-18T12:33:17;12.23;;;7.40;;
37483;SDS011;23337;52.212;9.926;2022-12-18T12:35:51;10.80;;;8.20;;
37483;SDS011;23337;52.212;9.926;2022-12-18T12:38:20;10.27;;;7.73;;
37483;SDS011;23337;52.212;9.926;2022-12-18T12:40:49;9.30;;;8.00;;
37483;SDS011;23337;52.212;9.926;2022-12-18T12:43:21;10.90;;;7.53;;
37483;SDS011;23337;52.212;9.926;2022-12-18T12:48:23;11.93;;;8.00;;
37483;SDS011;23337;52.212;9.926;2022-12-18T12:50:52;19.07;;;15.00;;
37483;SDS011;23337;52.212;9.926;2022-12-18T12:53:21;13.83;;;10.17;;
37483;SDS011;23337;52.212;9.926;2022-12-18T12:55:49;10.67;;;8.60;;
37483;SDS011;23337;52.212;9.926;2022-12-18T13:00:44;11.67;;;10.27;;
37483;SDS011;23337;52.212;9.926;2022-12-18T13:03:15;11.23;;;9.10;;
37483;SDS011;23337;52.212;9.926;2022-12-18T13:05:48;15.33;;;9.73;;
37483;SDS011;23337;52.212;9.926;2022-12-18T13:11:12;12.10;;;9.07;;
37483;SDS011;23337;52.212;9.926;2022-12-18T13:14:20;14.70;;;9.10;;
37483;SDS011;23337;52.212;9.926;2022-12-18T13:16:46;12.03;;;9.10;;
37483;SDS011;23337;52.212;9.926;2022-12-18T13:19:20;12.50;;;9.47;;
37483;SDS011;23337;52.212;9.926;2022-12-18T13:21:52;13.23;;;9.37;;
37483;SDS011;23337;52.212;9.926;2022-12-18T13:24:25;11.67;;;7.90;;
37483;SDS011;23337;52.212;9.926;2022-12-18T13:26:52;11.33;;;8.17;;
37483;SDS011;23337;52.212;9.926;2022-12-18T13:32:10;10.03;;;8.40;;
37483;SDS011;23337;52.212;9.926;2022-12-18T13:34:44;22.20;;;14.97;;
37483;SDS011;23337;52.212;9.926;2022-12-18T13:39:55;10.23;;;8.07;;
37483;SDS011;23337;52.212;9.926;2022-12-18T13:45:35;12.37;;;8.67;;
37483;SDS011;23337;52.212;9.926;2022-12-18T13:48:03;9.50;;;7.10;;
37483;SDS011;23337;52.212;9.926;2022-12-18T13:50:29;12.00;;;7.00;;
37483;SDS011;23337;52.212;9.926;2022-12-18T13:52:55;9.50;;;6.83;;
37483;SDS011;23337;52.212;9.926;2022-12-18T13:55:21;12.47;;;7.80;;
37483;SDS011;23337;52.212;9.926;2022-12-18T13:57:47;11.93;;;8.87;;
37483;SDS011;23337;52.212;9.926;2022-12-18T14:00:27;13.43;;;8.03;;
37483;SDS011;23337;52.212;9.926;2022-12-18T14:02:53;14.57;;;8.83;;
37483;SDS011;23337;52.212;9.926;2022-12-18T14:07:52;15.60;;;10.13;;
37483;SDS011;23337;52.212;9.926;2022-12-18T14:10:18;15.57;;;9.50;;
37483;SDS011;23337;52.212;9.926;2022-12-18T14:12:45;14.40;;;10.37;;
37483;SDS011;23337;52.212;9.926;2022-12-18T14:20:45;15.63;;;9.63;;
37483;SDS011;23337;52.212;9.926;2022-12-18T14:25:50;15.63;;;10.80;;
37483;SDS011;23337;52.212;9.926;2022-12-18T14:28:16;19.40;;;12.07;;
37483;SDS011;23337;52.212;9.926;2022-12-18T14:30:43;15.67;;;10.77;;
37483;SDS011;23337;52.212;9.926;2022-12-18T14:33:10;18.03;;;11.47;;
37483;SDS011;23337;52.212;9.926;2022-12-18T14:35:38;17.17;;;11.40;;
37483;SDS011;23337;52.212;9.926;2022-12-18T14:40:46;14.50;;;11.40;;
37483;SDS011;23337;52.212;9.926;2022-12-18T14:43:12;14.60;;;11.17;;
37483;SDS011;23337;52.212;9.926;2022-12-18T14:48:13;18.17;;;11.60;;
37483;SDS011;23337;52.212;9.926;2022-12-18T14:50:40;18.23;;;12.33;;
37483;SDS011;23337;52.212;9.926;2022-12-18T14:53:17;16.17;;;11.53;;
37483;SDS011;23337;52.212;9.926;2022-12-18T14:55:45;17.97;;;11.40;;
37483;SDS011;23337;52.212;9.926;2022-12-18T14:58:12;18.50;;;12.90;;
37483;SDS011;23337;52.212;9.926;2022-12-18T15:00:41;17.07;;;11.97;;
37483;SDS011;23337;52.212;9.926;2022-12-18T15:03:07;18.47;;;13.73;;
37483;SDS011;23337;52.212;9.926;2022-12-18T15:05:34;16.47;;;10.53;;
37483;SDS011;23337;52.212;9.926;2022-12-18T15:08:00;16.93;;;10.80;;
37483;SDS011;23337;52.212;9.926;2022-12-18T15:10:33;17.97;;;10.40;;
37483;SDS011;23337;52.212;9.926;2022-12-18T15:17:59;13.90;;;9.77;;
37483;SDS011;23337;52.212;9.926;2022-12-18T15:20:25;13.63;;;9.80;;
37483;SDS011;23337;52.212;9.926;2022-12-18T15:22:51;14.17;;;9.13;;
37483;SDS011;23337;52.212;9.926;2022-12-18T15:25:33;13.03;;;9.77;;
37483;SDS011;23337;52.212;9.926;2022-12-18T15:28:01;16.03;;;11.63;;
37483;SDS011;23337;52.212;9.926;2022-12-18T15:30:27;14.67;;;11.37;;
37483;SDS011;23337;52.212;9.926;2022-12-18T15:33:16;19.07;;;10.90;;
37483;SDS011;23337;52.212;9.926;2022-12-18T15:35:39;13.03;;;10.97;;
37483;SDS011;23337;52.212;9.926;2022-12-18T15:38:06;18.17;;;12.47;;
37483;SDS011;23337;52.212;9.926;2022-12-18T15:40:32;15.97;;;11.80;;
37483;SDS011;23337;52.212;9.926;2022-12-18T15:42:58;25.50;;;16.73;;
37483;SDS011;23337;52.212;9.926;2022-12-18T15:45:43;47.60;;;24.03;;
37483;SDS011;23337;52.212;9.926;2022-12-18T15:48:13;27.97;;;18.30;;
37483;SDS011;23337;52.212;9.926;2022-12-18T15:50:40;16.83;;;13.57;;
37483;SDS011;23337;52.212;9.926;2022-12-18T15:53:07;19.60;;;13.33;;
37483;SDS011;23337;52.212;9.926;2022-12-18T15:55:34;20.00;;;12.60;;
37483;SDS011;23337;52.212;9.926;2022-12-18T15:58:18;23.50;;;12.87;;
37483;SDS011;23337;52.212;9.926;2022-12-18T16:00:45;17.03;;;13.23;;
37483;SDS011;23337;52.212;9.926;2022-12-18T16:03:11;20.43;;;13.93;;
37483;SDS011;23337;52.212;9.926;2022-12-18T16:05:37;15.40;;;11.23;;
37483;SDS011;23337;52.212;9.926;2022-12-18T16:08:03;17.07;;;12.10;;
37483;SDS011;23337;52.212;9.926;2022-12-18T16:10:29;18.70;;;11.97;;
37483;SDS011;23337;52.212;9.926;2022-12-18T16:12:55;15.83;;;10.97;;
37483;SDS011;23337;52.212;9.926;2022-12-18T16:15:21;14.17;;;11.03;;
37483;SDS011;23337;52.212;9.926;2022-12-18T16:17:47;14.70;;;11.33;;